ヘルシンキ/ヴァンター の空港の天気 - METARとTAF

ヘルシンキ・ヴァンター国際空港 ( EFHK / HEL ) - フィンランド ヴァンター
飛行場実況気象(Metar)
観測時間02/26 05:20 EET (02/26 03:20 UTC)
風向・風速北北西 4m/s
視程4000m
天気現象弱い雪
全天の4割程度の雲 雲底高度 610m
全天を覆う雲 雲底高度 2440m
気温-9℃
湿度92%
気圧1031hPa
METAREFHK 260320Z 34007KT 4000 -SN SCT020 OVC080 M09/M10 Q1031 NOSIG
過去の天気等 Google飛行場航空写真 Wunderground天気予報

過去48時間のMETAR

飛行場予報(TAF)
発表時間: 2/26 04:33 EET (2/26 02:33 UTC)
予報対象時間: 26日5時 EET ~ 27日5時 EET
風向・風速北北西 4m/s
視程10km以上
少しの雲 雲底高度 460m
全天の8割程度の雲 雲底高度 1,830m
26日5時 EET ~ 26日8時 EET に一時的に
視程2,500m
天気現象弱い雪
26日8時 EET ~ 27日5時 EET に一時的に
視程4,000m
天気現象弱い雪
26日21時 EET ~ 26日23時 EET に徐々に
風向・風速北東 5m/s
TAF EFHK 260233Z 2603/2703 34007KT 9999 FEW015 BKN060
TEMPO 2603/2606 2500 -SN
TEMPO 2606/2703 4000 -SN
BECMG 2619/2621 04010KT